Time;durP1;ratioP1;P1;durP2;ratioP2;P2;SDS_P1;SDS_P2;PMS_P1;PMS_P2;Temp;Humidity;BMP_temperature;BMP_pressure;BME280_temperature;BME280_humidity;BME280_pressure;Samples;Min_cycle;Max_cycle;Signal;HPM_P1;HPM_P2
2023/09/29 00:01:24;;;;;;;1999.90;999.90;;;12.70;99.90;;;;;;5077112;28;20025;-77
2023/09/29 00:03:50;;;;;;;1999.90;999.90;;;12.70;99.90;;;;;;5077353;28;20124;-77
2023/09/29 00:06:15;;;;;;;1999.90;999.90;;;12.70;99.90;;;;;;5076826;28;20029;-75
2023/09/29 00:08:41;;;;;;;1999.90;999.90;;;12.80;99.90;;;;;;5075577;28;20036;-77
2023/09/29 00:11:07;;;;;;;1999.90;999.90;;;12.70;99.90;;;;;;5077240;28;20029;-77
2023/09/29 00:13:32;;;;;;;1999.90;999.90;;;12.70;99.90;;;;;;5076993;28;20036;-77
2023/09/29 00:15:58;;;;;;;1999.90;999.90;;;12.60;99.90;;;;;;5076673;28;20108;-76
2023/09/29 00:18:23;;;;;;;1999.90;999.90;;;12.70;99.90;;;;;;5075261;28;20717;-77
2023/09/29 00:20:49;;;;;;;1999.90;999.90;;;12.60;99.90;;;;;;5075371;28;20529;-77
2023/09/29 00:23:15;;;;;;;1999.90;999.90;;;12.70;99.90;;;;;;5075962;28;20029;-75
2023/09/29 00:25:41;;;;;;;1999.90;999.90;;;12.70;99.90;;;;;;5077351;28;20048;-77
2023/09/29 00:28:06;;;;;;;1999.90;999.90;;;12.60;99.90;;;;;;5075879;28;20112;-76
2023/09/29 00:30:32;;;;;;;1999.90;999.90;;;12.60;99.90;;;;;;5075220;28;20040;-77
2023/09/29 00:32:57;;;;;;;1999.90;999.90;;;12.60;99.90;;;;;;5076864;28;20037;-76
2023/09/29 00:37:50;;;;;;;1999.90;999.90;;;12.50;99.90;;;;;;5076972;28;20526;-77
2023/09/29 00:40:15;;;;;;;1999.90;999.90;;;12.50;99.90;;;;;;5074657;28;20041;-77
2023/09/29 00:42:44;;;;;;;1999.90;999.90;;;12.40;99.90;;;;;;5076773;28;20025;-77
2023/09/29 00:45:10;;;;;;;1999.90;999.90;;;12.40;99.90;;;;;;5075142;28;20046;-77
2023/09/29 00:47:37;;;;;;;1999.90;999.90;;;12.40;99.90;;;;;;5075958;28;20045;-77
2023/09/29 00:50:07;;;;;;;1999.90;999.90;;;12.40;99.90;;;;;;5076373;28;20521;-77
2023/09/29 00:52:37;;;;;;;1999.90;999.90;;;12.40;99.90;;;;;;5074789;28;20033;-76
2023/09/29 00:55:11;;;;;;;1999.90;999.90;;;12.40;99.90;;;;;;5074884;28;20037;-77
2023/09/29 00:57:40;;;;;;;1999.90;999.90;;;12.40;99.90;;;;;;5076150;28;20037;-77
2023/09/29 01:00:13;;;;;;;1999.90;999.90;;;12.30;99.90;;;;;;5075452;28;20114;-75
2023/09/29 01:02:40;;;;;;;1999.90;999.90;;;12.30;99.90;;;;;;5076276;28;20484;-77
2023/09/29 01:05:06;;;;;;;1999.90;999.90;;;12.30;99.90;;;;;;5074680;28;20128;-77
2023/09/29 01:07:32;;;;;;;1999.90;999.90;;;12.30;99.90;;;;;;5074105;28;20037;-77
2023/09/29 01:09:58;;;;;;;1999.90;999.90;;;12.30;99.90;;;;;;5076128;28;20033;-76
2023/09/29 01:12:25;;;;;;;1999.90;999.90;;;12.30;99.90;;;;;;5075404;28;20083;-76
2023/09/29 01:14:51;;;;;;;1999.90;999.90;;;12.30;99.90;;;;;;5075959;28;20037;-76
2023/09/29 01:17:18;;;;;;;1999.90;999.90;;;12.10;99.90;;;;;;5075989;28;20040;-77
2023/09/29 01:19:44;;;;;;;1999.90;999.90;;;12.20;99.90;;;;;;5075797;28;20041;-76
2023/09/29 01:22:10;;;;;;;1999.90;999.90;;;12.30;99.90;;;;;;5075821;28;20029;-77
2023/09/29 01:24:35;;;;;;;1999.90;999.90;;;12.40;99.90;;;;;;5075975;28;20116;-76
2023/09/29 01:27:01;;;;;;;1999.90;999.90;;;12.40;99.90;;;;;;5075549;28;20443;-77
2023/09/29 01:29:26;;;;;;;1999.90;999.90;;;12.50;99.90;;;;;;5075513;28;20036;-77
2023/09/29 01:31:52;;;;;;;1999.90;999.90;;;12.60;99.90;;;;;;5075834;28;20028;-77
2023/09/29 01:34:17;;;;;;;1999.90;999.90;;;12.40;99.90;;;;;;5075774;28;20056;-77
2023/09/29 01:36:43;;;;;;;1999.90;999.90;;;12.40;99.90;;;;;;5075505;28;20075;-77
2023/09/29 01:39:08;;;;;;;1999.90;999.90;;;12.30;99.90;;;;;;5075000;28;20090;-76
2023/09/29 01:41:34;;;;;;;1999.90;999.90;;;12.30;99.90;;;;;;5074268;28;20033;-76
2023/09/29 01:43:59;;;;;;;1999.90;999.90;;;12.20;99.90;;;;;;5075564;28;20524;-77
2023/09/29 01:46:25;;;;;;;1999.90;999.90;;;12.10;99.90;;;;;;5075101;28;20044;-77
2023/09/29 01:48:50;;;;;;;1999.90;999.90;;;12.00;99.90;;;;;;5075003;28;20490;-76
2023/09/29 01:51:17;;;;;;;1999.90;999.90;;;12.00;99.90;;;;;;5074045;28;20517;-77
2023/09/29 01:53:45;;;;;;;1999.90;999.90;;;12.00;99.90;;;;;;5073940;28;20057;-77
2023/09/29 01:56:11;;;;;;;1999.90;999.90;;;12.00;99.90;;;;;;5073642;28;20119;-77
2023/09/29 01:58:36;;;;;;;1999.90;999.90;;;12.00;99.90;;;;;;5075186;28;20113;-77
2023/09/29 02:01:02;;;;;;;1999.90;999.90;;;11.90;99.90;;;;;;5075171;28;20052;-77
2023/09/29 02:03:27;;;;;;;1999.90;999.90;;;11.90;99.90;;;;;;5073578;28;20033;-76
2023/09/29 02:05:53;;;;;;;1999.90;999.90;;;11.90;99.90;;;;;;5075014;28;20044;-76
2023/09/29 02:08:19;;;;;;;1999.90;999.90;;;11.90;99.90;;;;;;5073550;28;20029;-77
2023/09/29 02:10:49;;;;;;;1999.90;999.90;;;11.90;99.90;;;;;;5075297;28;20025;-77
2023/09/29 02:13:15;;;;;;;1999.90;999.90;;;12.00;99.90;;;;;;5075201;28;20032;-75
2023/09/29 02:15:41;;;;;;;1999.90;999.90;;;12.00;99.90;;;;;;5073255;28;20472;-77
2023/09/29 02:18:09;;;;;;;1999.90;999.90;;;12.10;99.90;;;;;;5074862;28;20043;-77
2023/09/29 02:20:36;;;;;;;1999.90;999.90;;;12.10;99.90;;;;;;5073841;28;20040;-77
2023/09/29 02:23:02;;;;;;;1999.90;999.90;;;12.10;99.90;;;;;;5074790;28;20026;-77
2023/09/29 02:25:29;;;;;;;1999.90;999.90;;;12.10;99.90;;;;;;5073553;28;20106;-77
2023/09/29 02:27:59;;;;;;;1999.90;999.90;;;12.10;99.90;;;;;;5074665;28;20087;-77
2023/09/29 02:30:26;;;;;;;1999.90;999.90;;;12.10;99.90;;;;;;5074359;28;20040;-77
2023/09/29 02:32:56;;;;;;;1999.90;999.90;;;12.20;99.90;;;;;;5074670;28;20457;-76
2023/09/29 02:35:22;;;;;;;1999.90;999.90;;;12.10;99.90;;;;;;5073050;28;20064;-77
2023/09/29 02:37:48;;;;;;;1999.90;999.90;;;12.10;99.90;;;;;;5074486;28;20079;-77
2023/09/29 02:40:15;;;;;;;1999.90;999.90;;;12.10;99.90;;;;;;5074410;28;20047;-77
2023/09/29 02:42:43;;;;;;;1999.90;999.90;;;12.00;99.90;;;;;;5074700;28;20495;-75
2023/09/29 02:45:08;;;;;;;1999.90;999.90;;;11.90;99.90;;;;;;5074394;28;20071;-77
2023/09/29 02:47:41;;;;;;;1999.90;999.90;;;12.00;99.90;;;;;;5072594;28;20124;-77
2023/09/29 02:50:11;;;;;;;1999.90;999.90;;;11.90;99.90;;;;;;5074279;28;20502;-76
2023/09/29 02:52:39;;;;;;;1999.90;999.90;;;11.80;99.90;;;;;;5074390;28;20029;-77
2023/09/29 02:55:06;;;;;;;1999.90;999.90;;;11.80;99.90;;;;;;5074616;28;20043;-77
2023/09/29 02:57:31;;;;;;;1999.90;999.90;;;11.80;99.90;;;;;;5073986;28;20079;-77
2023/09/29 03:00:00;;;;;;;1999.90;999.90;;;11.80;99.90;;;;;;5074175;28;20095;-77
2023/09/29 03:02:25;;;;;;;1999.90;999.90;;;11.70;99.90;;;;;;5073122;28;20033;-77
2023/09/29 03:04:51;;;;;;;1999.90;999.90;;;11.70;99.90;;;;;;5074374;28;20033;-77
2023/09/29 03:07:17;;;;;;;1999.90;999.90;;;11.60;99.90;;;;;;5072461;28;20386;-77
2023/09/29 03:09:42;;;;;;;1999.90;999.90;;;11.70;99.90;;;;;;5073990;28;20041;-76
2023/09/29 03:12:08;;;;;;;1999.90;999.90;;;11.70;99.90;;;;;;5074104;28;20554;-77
2023/09/29 03:14:34;;;;;;;1999.90;999.90;;;11.70;99.90;;;;;;5072675;28;20035;-77
2023/09/29 03:17:02;;;;;;;1999.90;999.90;;;11.60;99.90;;;;;;5072539;28;20033;-77
2023/09/29 03:19:30;;;;;;;1999.90;999.90;;;11.60;99.90;;;;;;5073773;28;20025;-77
2023/09/29 03:21:58;;;;;;;1999.90;999.90;;;11.60;99.90;;;;;;5074192;28;20033;-76
2023/09/29 03:24:30;;;;;;;1999.90;999.90;;;11.60;99.90;;;;;;5072571;28;20030;-77
2023/09/29 03:26:56;;;;;;;1999.90;999.90;;;11.50;99.90;;;;;;5073837;28;20100;-75
2023/09/29 03:29:22;;;;;;;1999.90;999.90;;;11.50;99.90;;;;;;5073572;28;20041;-77
2023/09/29 03:31:49;;;;;;;1999.90;999.90;;;11.50;99.90;;;;;;5076655;28;20056;-76
2023/09/29 03:34:15;;;;;;;1999.90;999.90;;;11.50;99.90;;;;;;5077670;28;20080;-77
2023/09/29 03:36:41;;;;;;;1999.90;999.90;;;11.50;99.90;;;;;;5075761;28;20486;-76
2023/09/29 03:39:08;;;;;;;1999.90;999.90;;;11.50;99.90;;;;;;5077561;28;20504;-77
2023/09/29 03:41:34;;;;;;;1999.90;999.90;;;11.60;99.90;;;;;;5077518;28;20029;-76
2023/09/29 03:44:00;;;;;;;1999.90;999.90;;;11.60;99.90;;;;;;5077350;28;20083;-77
2023/09/29 03:46:26;;;;;;;1999.90;999.90;;;11.60;99.90;;;;;;5076933;28;20103;-77
2023/09/29 03:48:52;;;;;;;1999.90;999.90;;;11.70;99.90;;;;;;5077083;28;20083;-76
2023/09/29 03:51:24;;;;;;;1999.90;999.90;;;11.70;99.90;;;;;;5077356;28;20029;-76
2023/09/29 03:53:51;;;;;;;1999.90;999.90;;;11.70;99.90;;;;;;5076845;28;20212;-77
2023/09/29 03:56:16;;;;;;;1999.90;999.90;;;11.70;99.90;;;;;;5077108;28;20039;-77
2023/09/29 03:58:44;;;;;;;1999.90;999.90;;;11.80;99.90;;;;;;5077019;28;20033;-75
2023/09/29 04:01:09;;;;;;;1999.90;999.90;;;11.90;99.90;;;;;;5076972;28;20478;-77
2023/09/29 04:03:35;;;;;;;1999.90;999.90;;;12.00;99.90;;;;;;5077145;28;20033;-77
2023/09/29 04:06:01;;;;;;;1999.90;999.90;;;12.10;99.90;;;;;;5076784;28;20587;-77
2023/09/29 04:08:26;;;;;;;1999.90;999.90;;;12.20;99.90;;;;;;5075461;28;20120;-77
2023/09/29 04:10:55;;;;;;;1999.90;999.90;;;12.30;99.90;;;;;;5077019;28;20037;-77
2023/09/29 04:13:21;;;;;;;1999.90;999.90;;;12.40;99.90;;;;;;5075437;28;20502;-76
2023/09/29 04:15:46;;;;;;;1999.90;999.90;;;12.50;99.90;;;;;;5075078;28;20128;-77
2023/09/29 04:18:12;;;;;;;1999.90;999.90;;;12.60;99.90;;;;;;5076663;28;20032;-77
2023/09/29 04:20:37;;;;;;;1999.90;999.90;;;12.70;99.90;;;;;;5076852;28;20033;-77
2023/09/29 04:23:06;;;;;;;1999.90;999.90;;;12.90;99.90;;;;;;5076823;28;20065;-77
2023/09/29 04:25:32;;;;;;;1999.90;999.90;;;12.80;99.90;;;;;;5076549;28;20068;-76
2023/09/29 04:27:57;;;;;;;1999.90;999.90;;;12.90;99.90;;;;;;5074952;28;20065;-77
2023/09/29 04:30:23;;;;;;;1999.90;999.90;;;12.90;99.90;;;;;;5076101;28;20051;-77
2023/09/29 04:32:49;;;;;;;1999.90;999.90;;;12.90;99.90;;;;;;5076687;28;20437;-76
2023/09/29 04:35:14;;;;;;;1999.90;999.90;;;13.00;99.90;;;;;;5076687;28;20032;-76
2023/09/29 04:37:41;;;;;;;1999.90;999.90;;;13.00;99.90;;;;;;5076462;28;20506;-77
2023/09/29 04:40:07;;;;;;;1999.90;999.90;;;13.10;99.90;;;;;;5076359;28;20029;-73
2023/09/29 04:42:34;;;;;;;1999.90;999.90;;;13.10;99.90;;;;;;5075738;28;20033;-73
2023/09/29 04:44:59;;;;;;;1999.90;999.90;;;13.10;99.90;;;;;;5076483;28;20113;-75
2023/09/29 04:47:27;;;;;;;1999.90;999.90;;;13.20;99.90;;;;;;5076069;28;20098;-73
2023/09/29 04:49:53;;;;;;;1999.90;999.90;;;13.20;99.90;;;;;;5074803;28;20073;-73
2023/09/29 04:52:19;;;;;;;1999.90;999.90;;;13.20;99.90;;;;;;5076298;28;20602;-73
2023/09/29 04:54:44;;;;;;;1999.90;999.90;;;13.20;99.90;;;;;;5074785;28;20190;-73
2023/09/29 04:57:10;;;;;;;1999.90;999.90;;;13.30;99.90;;;;;;5076424;28;20075;-73
2023/09/29 04:59:35;;;;;;;1999.90;999.90;;;13.30;99.90;;;;;;5075132;28;20039;-73
2023/09/29 05:02:01;;;;;;;1999.90;999.90;;;13.30;99.90;;;;;;5074915;28;20098;-74
2023/09/29 05:04:27;;;;;;;1999.90;999.90;;;13.30;99.90;;;;;;5074438;28;20099;-76
2023/09/29 05:06:52;;;;;;;1999.90;999.90;;;13.20;99.90;;;;;;5075380;28;20025;-75
2023/09/29 05:09:19;;;;;;;1999.90;999.90;;;13.20;99.90;;;;;;5075404;28;20426;-76
2023/09/29 05:11:45;;;;;;;1999.90;999.90;;;13.20;99.90;;;;;;5073967;28;20525;-76
2023/09/29 05:14:11;;;;;;;1999.90;999.90;;;13.20;99.90;;;;;;5073756;28;20045;-76
2023/09/29 05:16:36;;;;;;;1999.90;999.90;;;13.20;99.90;;;;;;5075415;28;20091;-76
2023/09/29 05:19:02;;;;;;;1999.90;999.90;;;13.20;99.90;;;;;;5075426;28;20044;-76
2023/09/29 05:21:28;;;;;;;1999.90;999.90;;;13.20;99.90;;;;;;5075676;28;20548;-77
2023/09/29 05:23:53;;;;;;;1999.90;999.90;;;13.20;99.90;;;;;;5075834;28;20029;-76
2023/09/29 05:26:19;;;;;;;1999.90;999.90;;;13.30;99.90;;;;;;5075229;28;20033;-75
2023/09/29 05:28:45;;;;;;;1999.90;999.90;;;13.30;99.90;;;;;;5074736;28;20183;-76
2023/09/29 05:31:11;;;;;;;1999.90;999.90;;;13.30;99.90;;;;;;5082724;22;20132;-77
2023/09/29 05:33:36;;;;;;;1999.90;999.90;;;13.40;99.90;;;;;;5055371;28;20120;-75
2023/09/29 05:36:03;;;;;;;1999.90;999.90;;;13.40;99.90;;;;;;5055232;28;20072;-75
2023/09/29 05:38:29;;;;;;;1999.90;999.90;;;13.40;99.90;;;;;;5055271;28;20049;-75
2023/09/29 05:40:54;;;;;;;1999.90;999.90;;;13.40;99.90;;;;;;5055295;28;20038;-75
2023/09/29 05:43:20;;;;;;;1999.90;999.90;;;13.60;99.90;;;;;;5054985;28;20044;-75
2023/09/29 05:45:47;;;;;;;1999.90;999.90;;;13.50;99.90;;;;;;5055140;28;20446;-75
2023/09/29 05:48:12;;;;;;;1999.90;999.90;;;13.60;99.90;;;;;;5055291;28;20038;-75
2023/09/29 05:50:38;;;;;;;1999.90;999.90;;;13.70;99.90;;;;;;5055034;28;20072;-75
2023/09/29 05:53:04;;;;;;;1999.90;999.90;;;13.80;99.90;;;;;;5055224;28;20041;-75
2023/09/29 05:55:30;;;;;;;1999.90;999.90;;;13.90;99.90;;;;;;5055215;28;20041;-81
2023/09/29 05:57:56;;;;;;;1999.90;999.90;;;14.00;99.90;;;;;;5053365;28;20034;-75
2023/09/29 06:00:22;;;;;;;1999.90;999.90;;;14.00;99.90;;;;;;5054902;28;20037;-73
2023/09/29 06:02:47;;;;;;;1999.90;999.90;;;14.10;99.90;;;;;;5053664;28;20030;-78
2023/09/29 06:05:13;;;;;;;1999.90;999.90;;;14.10;99.90;;;;;;5055386;28;20042;-74
2023/09/29 06:07:40;;;;;;;1999.90;999.90;;;14.20;99.90;;;;;;5055357;28;20033;-73
2023/09/29 06:10:06;;;;;;;1999.90;999.90;;;14.20;99.90;;;;;;5054814;28;20192;-73
2023/09/29 06:12:32;;;;;;;1999.90;999.90;;;14.40;99.90;;;;;;5054998;28;20746;-73
2023/09/29 06:14:58;;;;;;;1999.90;999.90;;;14.50;99.90;;;;;;5055273;28;20048;-74
2023/09/29 06:17:24;;;;;;;1999.90;999.90;;;14.60;99.90;;;;;;5055085;28;20055;-73
2023/09/29 06:19:50;;;;;;;1999.90;999.90;;;14.70;99.90;;;;;;5053503;28;20037;-73
2023/09/29 06:22:17;;;;;;;1999.90;999.90;;;14.70;99.90;;;;;;5054911;28;20040;-73
2023/09/29 06:24:44;;;;;;;1999.90;999.90;;;14.80;99.90;;;;;;5055298;28;20040;-74
2023/09/29 06:27:10;;;;;;;1999.90;999.90;;;14.70;99.90;;;;;;5055144;28;20402;-73
2023/09/29 06:29:36;;;;;;;1999.90;999.90;;;14.70;99.90;;;;;;5053054;28;20049;-74
2023/09/29 06:32:01;;;;;;;1999.90;999.90;;;14.80;99.90;;;;;;5056330;28;20033;-79
2023/09/29 06:34:27;;;;;;;1999.90;999.90;;;14.70;99.90;;;;;;5054814;28;20037;-77
2023/09/29 06:36:53;;;;;;;1999.90;999.90;;;14.70;99.90;;;;;;5055568;28;20065;-82
2023/09/29 06:39:18;;;;;;;1999.90;999.90;;;14.70;99.90;;;;;;5048156;28;20096;-73
2023/09/29 06:41:44;;;;;;;1999.90;999.90;;;14.80;99.90;;;;;;5055790;28;20033;-73
2023/09/29 06:44:09;;;;;;;1999.90;999.90;;;14.80;99.90;;;;;;5054695;28;20043;-74
2023/09/29 06:46:35;;;;;;;1999.90;999.90;;;15.00;99.90;;;;;;5054235;28;20108;-75
2023/09/29 06:49:03;;;;;;;1999.90;999.90;;;15.10;99.90;;;;;;5053280;28;20053;-73
2023/09/29 06:51:29;;;;;;;1999.90;999.90;;;15.30;99.90;;;;;;5054189;28;20029;-73
2023/09/29 06:53:54;;;;;;;1999.90;999.90;;;15.40;99.90;;;;;;5054594;28;20541;-73
2023/09/29 06:56:20;;;;;;;1999.90;999.90;;;15.30;99.90;;;;;;5054426;28;20072;-74
2023/09/29 06:58:46;;;;;;;1999.90;999.90;;;15.50;99.90;;;;;;5054308;28;20101;-73
2023/09/29 07:01:12;;;;;;;1999.90;999.90;;;15.60;99.90;;;;;;5054366;28;20831;-73
2023/09/29 07:03:38;;;;;;;1999.90;999.90;;;15.70;99.90;;;;;;5054658;28;20057;-73
2023/09/29 07:06:04;;;;;;;1999.90;999.90;;;15.70;99.90;;;;;;5058819;28;20135;-73
2023/09/29 07:08:30;;;;;;;1999.90;999.90;;;15.80;99.90;;;;;;5060935;28;20479;-73
2023/09/29 07:10:56;;;;;;;1999.90;999.90;;;15.80;99.90;;;;;;5059992;28;20536;-74
2023/09/29 07:13:21;;;;;;;1999.90;999.90;;;16.00;99.90;;;;;;5062534;28;20037;-74
2023/09/29 07:15:47;;;;;;;1999.90;999.90;;;16.10;99.90;;;;;;5061903;28;20088;-73
2023/09/29 07:18:13;;;;;;;1999.90;999.90;;;16.20;99.90;;;;;;5062209;28;20498;-73
2023/09/29 07:20:39;;;;;;;1999.90;999.90;;;16.40;99.90;;;;;;5062544;28;20502;-73
2023/09/29 07:23:05;;;;;;;1999.90;999.90;;;16.70;99.90;;;;;;5062453;28;20033;-73
2023/09/29 07:25:31;;;;;;;1999.90;999.90;;;16.90;99.90;;;;;;5061944;28;20044;-73
2023/09/29 07:27:56;;;;;;;1999.90;999.90;;;17.20;99.90;;;;;;5061369;28;20061;-74
2023/09/29 07:30:22;;;;;;;1999.90;999.90;;;17.20;99.90;;;;;;5060617;28;20041;-73
2023/09/29 07:32:48;;;;;;;1999.90;999.90;;;17.20;99.90;;;;;;5060587;28;20052;-73
2023/09/29 07:35:14;;;;;;;1999.90;999.90;;;17.20;99.90;;;;;;5061547;28;20111;-74
2023/09/29 07:37:40;;;;;;;1999.90;999.90;;;17.20;99.90;;;;;;5061998;28;20553;-73
2023/09/29 07:40:09;;;;;;;1999.90;999.90;;;17.20;99.90;;;;;;5062109;28;20116;-73
2023/09/29 07:42:35;;;;;;;1999.90;999.90;;;17.40;99.90;;;;;;5060931;28;20068;-73
2023/09/29 07:45:01;;;;;;;1999.90;999.90;;;17.40;99.90;;;;;;5062051;28;20119;-73
2023/09/29 07:47:26;;;;;;;1999.90;999.90;;;17.50;99.90;;;;;;5059503;28;20073;-74
2023/09/29 07:49:52;;;;;;;1999.90;999.90;;;17.60;99.90;;;;;;5060684;28;20402;-73
2023/09/29 07:52:18;;;;;;;1999.90;999.90;;;17.70;99.90;;;;;;5059162;28;20104;-73
2023/09/29 07:54:44;;;;;;;1999.90;999.90;;;17.80;99.90;;;;;;5060934;28;20030;-73
2023/09/29 07:57:09;;;;;;;1999.90;999.90;;;18.10;99.90;;;;;;5060101;28;20033;-80
2023/09/29 07:59:35;;;;;;;1999.90;999.90;;;18.30;99.90;;;;;;5059426;28;20037;-73
2023/09/29 08:02:00;;;;;;;1999.90;999.90;;;18.50;99.90;;;;;;5067406;28;20034;-74
2023/09/29 08:04:26;;;;;;;1999.90;999.90;;;18.60;99.90;;;;;;5060006;28;20036;-74
2023/09/29 08:06:52;;;;;;;1999.90;999.90;;;18.60;99.90;;;;;;5061362;28;20069;-73
2023/09/29 08:09:17;;;;;;;1999.90;999.90;;;18.50;99.90;;;;;;5061073;28;20494;-73
2023/09/29 08:11:43;;;;;;;1999.90;999.90;;;18.40;99.90;;;;;;5059919;28;20040;-73
2023/09/29 08:14:09;;;;;;;1999.90;999.90;;;18.40;99.90;;;;;;5062023;28;20506;-76
2023/09/29 08:16:35;;;;;;;1999.90;999.90;;;18.30;99.90;;;;;;5059853;28;20038;-77
2023/09/29 08:19:01;;;;;;;1999.90;999.90;;;18.20;99.90;;;;;;5057797;28;20064;-75
2023/09/29 08:21:27;;;;;;;1999.90;999.90;;;18.20;99.90;;;;;;5057233;28;20056;-76
2023/09/29 08:23:53;;;;;;;1999.90;999.90;;;18.40;99.90;;;;;;5057112;28;20040;-73
2023/09/29 08:26:18;;;;;;;1999.90;999.90;;;18.70;99.90;;;;;;5056685;28;20037;-73
2023/09/29 08:28:44;;;;;;;1999.90;999.90;;;19.10;99.90;;;;;;5057486;28;20034;-76
2023/09/29 08:31:16;;;;;;;1999.90;999.90;;;19.40;99.90;;;;;;5056854;28;20129;-73
2023/09/29 08:33:42;;;;;;;1999.90;999.90;;;19.90;99.90;;;;;;5055382;28;20087;-83
2023/09/29 08:36:08;;;;;;;1999.90;999.90;;;20.00;99.90;;;;;;5056626;28;20033;-75
2023/09/29 08:38:33;;;;;;;1999.90;999.90;;;19.90;99.90;;;;;;5054433;28;20103;-75
2023/09/29 08:41:04;;;;;;;1999.90;999.90;;;19.90;99.90;;;;;;5055669;28;20046;-75
2023/09/29 08:43:31;;;;;;;1999.90;999.90;;;19.80;99.90;;;;;;5054194;28;20414;-74
2023/09/29 08:46:00;;;;;;;1999.90;999.90;;;19.70;99.90;;;;;;5055866;28;20040;-75
2023/09/29 08:48:28;;;;;;;1999.90;999.90;;;19.80;99.90;;;;;;5054563;28;20029;-75
2023/09/29 08:50:57;;;;;;;1999.90;999.90;;;20.00;99.90;;;;;;5055577;28;20756;-75
2023/09/29 08:53:26;;;;;;;1999.90;999.90;;;20.10;99.90;;;;;;5055716;28;20033;-76
2023/09/29 08:55:56;;;;;;;1999.90;999.90;;;20.30;99.90;;;;;;5055268;28;20550;-75
2023/09/29 08:58:23;;;;;;;1999.90;999.90;;;20.50;99.90;;;;;;5054176;28;20033;-76
2023/09/29 09:00:50;;;;;;;1999.90;999.90;;;20.90;99.90;;;;;;5054069;28;20491;-75
2023/09/29 09:03:17;;;;;;;1999.90;999.90;;;21.20;99.90;;;;;;5053449;28;20479;-75
2023/09/29 09:05:43;;;;;;;1999.90;999.90;;;21.60;99.90;;;;;;5054114;28;20033;-75
2023/09/29 09:08:10;;;;;;;1999.90;999.90;;;22.00;99.90;;;;;;5052562;28;20025;-75
2023/09/29 09:10:36;;;;;;;1999.90;999.90;;;22.40;99.90;;;;;;5053311;28;20034;-74
2023/09/29 09:13:08;;;;;;;1999.90;999.90;;;22.80;99.90;;;;;;5054535;28;20034;-75
2023/09/29 09:15:34;;;;;;;1999.90;999.90;;;23.50;99.90;;;;;;5054477;28;20851;-80
2023/09/29 09:18:00;;;;;;;1999.90;999.90;;;24.10;99.90;;;;;;5053524;28;20030;-76
2023/09/29 09:20:26;;;;;;;1999.90;999.90;;;24.40;99.90;;;;;;5055086;28;20507;-77
2023/09/29 09:23:03;;;;;;;1999.90;999.90;;;24.30;99.90;;;;;;5038604;28;20034;-79
2023/09/29 09:25:42;;;;;;;1999.90;999.90;;;24.00;99.90;;;;;;5035611;28;20038;-76
2023/09/29 09:28:17;;;;;;;1999.90;999.90;;;24.00;99.90;;;;;;5033724;28;20037;-73
2023/09/29 09:30:44;;;;;;;1999.90;999.90;;;24.00;99.90;;;;;;5038263;28;20041;-75
2023/09/29 09:33:21;;;;;;;1999.90;999.90;;;23.70;99.90;;;;;;5054085;28;20025;-75
2023/09/29 09:35:49;;;;;;;1999.90;999.90;;;23.50;99.90;;;;;;5056145;28;20044;-74
2023/09/29 09:38:14;;;;;;;1999.90;999.90;;;23.40;99.90;;;;;;5056200;28;20021;-74
2023/09/29 09:40:40;;;;;;;1999.90;999.90;;;23.40;99.90;;;;;;5055217;28;20450;-77
2023/09/29 09:43:07;;;;;;;1999.90;999.90;;;23.40;99.90;;;;;;5062095;28;20033;-77
2023/09/29 09:45:39;;;;;;;1999.90;999.90;;;23.40;99.90;;;;;;5075786;28;20033;-74
2023/09/29 09:48:07;;;;;;;1999.90;999.90;;;23.50;99.90;;;;;;5074580;28;20094;-76
2023/09/29 09:50:36;;;;;;;1999.90;999.90;;;23.40;99.90;;;;;;5075728;28;20107;-76
2023/09/29 09:53:07;;;;;;;1999.90;999.90;;;23.50;99.90;;;;;;5074614;28;20510;-75
2023/09/29 09:55:37;;;;;;;1999.90;999.90;;;23.50;99.90;;;;;;5075847;28;20722;-75
2023/09/29 09:58:16;;;;;;;1999.90;999.90;;;23.50;99.90;;;;;;5035044;28;20053;-74
2023/09/29 10:00:44;;;;;;;1999.90;999.90;;;23.60;99.90;;;;;;5058035;28;20498;-74
2023/09/29 10:03:14;;;;;;;1999.90;999.90;;;23.70;99.90;;;;;;5075038;28;20067;-74
2023/09/29 10:05:41;;;;;;;1999.90;999.90;;;23.80;99.90;;;;;;5074872;28;20029;-77
2023/09/29 10:08:09;;;;;;;1999.90;999.90;;;24.00;99.90;;;;;;5074612;28;20036;-74
2023/09/29 10:10:38;;;;;;;1999.90;999.90;;;24.20;99.90;;;;;;5073794;28;20033;-74
2023/09/29 10:13:06;;;;;;;1999.90;999.90;;;24.30;99.90;;;;;;5073027;28;20094;-73
2023/09/29 10:15:32;;;;;;;1999.90;999.90;;;24.40;99.90;;;;;;5073888;28;20037;-73
2023/09/29 10:18:13;;;;;;;1999.90;999.90;;;24.50;99.90;;;;;;5075233;28;20099;-74
2023/09/29 10:20:39;;;;;;;1999.90;999.90;;;24.60;99.90;;;;;;5075038;28;20115;-74
2023/09/29 10:23:06;;;;;;;1999.90;999.90;;;24.70;99.90;;;;;;5075130;28;20029;-75
2023/09/29 10:25:36;;;;;;;1999.90;999.90;;;24.90;99.90;;;;;;5074842;28;20037;-74
2023/09/29 10:28:07;;;;;;;1999.90;999.90;;;25.00;99.90;;;;;;5074634;28;20037;-76
2023/09/29 10:30:39;;;;;;;1999.90;999.90;;;25.00;99.40;;;;;;5073524;28;20037;-74
2023/09/29 10:33:11;;;;;;;1999.90;999.90;;;25.20;99.60;;;;;;5072905;28;20029;-74
2023/09/29 10:35:46;;;;;;;1999.90;999.90;;;25.30;99.30;;;;;;5074029;28;20489;-74
2023/09/29 10:38:22;;;;;;;1999.90;999.90;;;25.40;98.30;;;;;;5072018;28;20025;-75
2023/09/29 10:40:48;;;;;;;1999.90;999.90;;;25.50;98.40;;;;;;5073961;28;20037;-80
2023/09/29 10:43:17;;;;;;;1999.90;999.90;;;25.50;98.30;;;;;;5072773;28;20036;-76
2023/09/29 10:45:44;;;;;;;1999.90;999.90;;;25.60;97.90;;;;;;5072471;28;20028;-80
2023/09/29 10:48:10;;;;;;;1999.90;999.90;;;25.70;98.30;;;;;;5073227;28;20403;-79
2023/09/29 10:50:44;;;;;;;1999.90;999.90;;;25.80;97.60;;;;;;5072271;28;20041;-74
2023/09/29 10:53:10;;;;;;;1999.90;999.90;;;25.80;97.10;;;;;;5073206;28;20040;-73
2023/09/29 10:55:44;;;;;;;1999.90;999.90;;;26.00;97.60;;;;;;5055429;28;20530;-78
2023/09/29 10:58:11;;;;;;;1999.90;999.90;;;26.00;97.30;;;;;;5054554;28;20120;-74
2023/09/29 11:00:42;;;;;;;1999.90;999.90;;;26.10;97.50;;;;;;5052068;28;20481;-74
2023/09/29 11:03:11;;;;;;;1999.90;999.90;;;26.20;96.90;;;;;;5053985;28;20026;-74
2023/09/29 11:05:49;;;;;;;1999.90;999.90;;;26.20;96.60;;;;;;5053716;28;20108;-73
2023/09/29 11:08:21;;;;;;;1999.90;999.90;;;26.30;96.70;;;;;;5052386;28;20026;-74
2023/09/29 11:10:58;;;;;;;1999.90;999.90;;;26.40;96.00;;;;;;5053512;28;20048;-74
2023/09/29 11:13:24;;;;;;;1999.90;999.90;;;26.50;96.10;;;;;;5057384;28;20040;-78
2023/09/29 11:15:51;;;;;;;1999.90;999.90;;;26.60;96.10;;;;;;5061746;28;20096;-76
2023/09/29 11:18:34;;;;;;;1999.90;999.90;;;26.70;95.70;;;;;;5069708;28;20047;-74
2023/09/29 11:21:05;;;;;;;1999.90;999.90;;;26.70;95.30;;;;;;5073278;28;20033;-73
2023/09/29 11:23:45;;;;;;;1999.90;999.90;;;26.80;96.00;;;;;;5073287;28;20025;-76
2023/09/29 11:26:12;;;;;;;1999.90;999.90;;;26.80;95.90;;;;;;5072013;28;20493;-73
2023/09/29 11:28:48;;;;;;;1999.90;999.90;;;26.70;95.80;;;;;;5058345;28;20041;-77
2023/09/29 11:31:17;;;;;;;1999.90;999.90;;;26.70;95.30;;;;;;5052797;28;20046;-79
2023/09/29 11:33:44;;;;;;;1999.90;999.90;;;26.80;95.50;;;;;;5053838;28;20597;-78
2023/09/29 11:36:23;;;;;;;1999.90;999.90;;;26.60;95.80;;;;;;5067666;28;20044;-79
2023/09/29 11:38:51;;;;;;;1999.90;999.90;;;26.70;96.00;;;;;;5073203;28;20029;-78
2023/09/29 11:41:17;;;;;;;1999.90;999.90;;;26.90;96.20;;;;;;5072431;28;20033;-78
2023/09/29 11:43:44;;;;;;;1999.90;999.90;;;27.10;95.50;;;;;;5073463;28;20037;-78
2023/09/29 11:46:10;;;;;;;1999.90;999.90;;;27.30;95.70;;;;;;5072933;28;20095;-79
2023/09/29 11:48:36;;;;;;;1999.90;999.90;;;27.60;95.70;;;;;;5073408;28;20043;-79
2023/09/29 11:51:03;;;;;;;1999.90;999.90;;;27.80;94.90;;;;;;5074375;28;20040;-79
2023/09/29 11:53:29;;;;;;;1999.90;999.90;;;28.00;94.70;;;;;;5076952;28;20035;-78
2023/09/29 11:55:56;;;;;;;1999.90;999.90;;;28.00;94.10;;;;;;5076718;28;20033;-79
2023/09/29 11:58:25;;;;;;;1999.90;999.90;;;28.10;93.90;;;;;;5078635;28;20025;-79
2023/09/29 12:00:51;;;;;;;1999.90;999.90;;;27.90;94.50;;;;;;5077451;28;20450;-78